createdAt,value
2023-02-26T00:01:52.354Z,98808.72
2023-02-26T00:04:21.696Z,98808.59
2023-02-26T00:06:57.552Z,98820.03
2023-02-26T00:09:28.733Z,98815.25
2023-02-26T00:11:58.727Z,98826.34
2023-02-26T00:14:28.374Z,98826.53
2023-02-26T00:17:22.645Z,98836.91
2023-02-26T00:19:53.339Z,98840.75
2023-02-26T00:22:25.461Z,98835.84
2023-02-26T00:24:55.646Z,98839.75
2023-02-26T00:27:24.778Z,98849.66
2023-02-26T00:29:54.527Z,98846.91
2023-02-26T00:32:24.088Z,98850.25
2023-02-26T00:34:53.713Z,98854.78
2023-02-26T00:37:33.186Z,98861.78
2023-02-26T00:40:12.973Z,98858.53
2023-02-26T00:42:42.597Z,98866.06
2023-02-26T00:45:14.068Z,98862.19
2023-02-26T00:47:50.000Z,98880.34
2023-02-26T00:50:20.956Z,98869.72
2023-02-26T00:53:04.716Z,98878.22
2023-02-26T00:55:33.855Z,98878.22
2023-02-26T00:58:03.720Z,98876.56
2023-02-26T01:00:34.123Z,98882.03
2023-02-26T01:03:03.737Z,98884.84
2023-02-26T01:05:33.476Z,98886.97
2023-02-26T01:08:10.319Z,98894.72
2023-02-26T01:10:39.704Z,98901.22
2023-02-26T01:13:09.381Z,98900.63
2023-02-26T01:15:39.268Z,98904.00
2023-02-26T01:18:13.763Z,98909.13
2023-02-26T01:20:46.603Z,98919.38
2023-02-26T01:23:19.490Z,98914.22
2023-02-26T01:25:51.074Z,98925.41
2023-02-26T01:28:21.289Z,98926.53
2023-02-26T01:30:50.967Z,98929.88
2023-02-26T01:33:25.235Z,98933.59
2023-02-26T01:35:56.064Z,98944.69
2023-02-26T01:38:32.205Z,98948.59
2023-02-26T01:41:18.703Z,98952.81
2023-02-26T01:43:55.168Z,98959.88
2023-02-26T01:46:30.240Z,98958.66
2023-02-26T01:49:00.507Z,98965.41
2023-02-26T01:51:51.427Z,98966.47
2023-02-26T01:54:23.652Z,98984.41
2023-02-26T01:56:58.882Z,98989.13
2023-02-26T01:59:27.977Z,99004.81
2023-02-26T02:01:58.566Z,99006.63
2023-02-26T02:04:28.158Z,99011.06
2023-02-26T02:06:57.542Z,99021.88
2023-02-26T02:09:28.194Z,99025.63
2023-02-26T02:12:10.139Z,99023.25
2023-02-26T02:14:46.825Z,99026.81
2023-02-26T02:17:20.211Z,99041.94
2023-02-26T02:20:28.243Z,99052.22
2023-02-26T02:23:06.618Z,99044.41
2023-02-26T02:25:58.453Z,99059.66
2023-02-26T02:28:37.074Z,99059.13
2023-02-26T02:31:09.873Z,99064.22
2023-02-26T02:33:44.919Z,99071.88
2023-02-26T02:36:16.847Z,99074.00
2023-02-26T02:38:50.392Z,99078.66
2023-02-26T02:41:22.203Z,99074.78
2023-02-26T02:43:52.221Z,99074.50
2023-02-26T02:46:27.263Z,99075.84
2023-02-26T02:48:59.233Z,99088.78
2023-02-26T02:51:32.701Z,99086.38
2023-02-26T02:54:06.824Z,99087.22
2023-02-26T02:56:42.632Z,99081.22
2023-02-26T02:59:16.306Z,99092.00
2023-02-26T03:01:50.785Z,99095.28
2023-02-26T03:04:20.451Z,99097.28
2023-02-26T03:06:50.271Z,99104.66
2023-02-26T03:09:21.190Z,99119.72
2023-02-26T03:11:50.401Z,99119.94
2023-02-26T03:14:19.968Z,99127.59
2023-02-26T03:17:10.382Z,99141.13
2023-02-26T03:19:45.821Z,99145.09
2023-02-26T03:22:20.039Z,99143.19
2023-02-26T03:25:06.482Z,99154.13
2023-02-26T03:27:40.600Z,99160.09
2023-02-26T03:30:16.154Z,99168.25
2023-02-26T03:32:56.006Z,99166.94
2023-02-26T03:35:31.076Z,99174.91
2023-02-26T03:38:06.083Z,99178.09
2023-02-26T03:40:39.346Z,99178.38
2023-02-26T03:43:14.540Z,99182.09
2023-02-26T03:45:46.984Z,99176.84
2023-02-26T03:48:21.178Z,99187.00
2023-02-26T03:50:53.332Z,99194.94
2023-02-26T03:54:01.721Z,99195.00
2023-02-26T03:56:38.064Z,99203.00
2023-02-26T03:59:26.169Z,99203.25
2023-02-26T04:02:25.328Z,99215.06
2023-02-26T04:05:03.471Z,99201.91
2023-02-26T04:07:33.086Z,99215.31
2023-02-26T04:10:02.403Z,99216.13
2023-02-26T04:12:33.789Z,99221.94
2023-02-26T04:15:05.391Z,99230.47
2023-02-26T04:17:34.546Z,99227.69
2023-02-26T04:20:08.125Z,99234.22
2023-02-26T04:22:36.939Z,99240.72
2023-02-26T04:25:07.039Z,99233.13
2023-02-26T04:27:38.455Z,99237.97
2023-02-26T04:30:09.572Z,99248.41
2023-02-26T04:32:38.685Z,99245.09
2023-02-26T04:35:10.804Z,99251.31
2023-02-26T04:37:39.586Z,99250.63
2023-02-26T04:40:10.129Z,99247.31
2023-02-26T04:42:39.839Z,99248.41
2023-02-26T04:45:09.534Z,99253.78
2023-02-26T04:47:40.822Z,99263.31
2023-02-26T04:50:13.209Z,99267.94
2023-02-26T04:52:42.065Z,99268.78
2023-02-26T04:55:11.802Z,99273.09
2023-02-26T04:57:41.100Z,99275.03
2023-02-26T05:00:11.691Z,99277.66
2023-02-26T05:02:42.015Z,99280.81
2023-02-26T05:05:13.042Z,99287.03
2023-02-26T05:07:41.917Z,99294.66
2023-02-26T05:10:13.090Z,99297.16
2023-02-26T05:12:43.172Z,99305.28
2023-02-26T05:15:13.118Z,99309.00
2023-02-26T05:17:45.148Z,99314.81
2023-02-26T05:20:16.740Z,99312.47
2023-02-26T05:22:45.490Z,99333.19
2023-02-26T05:25:14.749Z,99323.72
2023-02-26T05:27:45.603Z,99324.28
2023-02-26T05:30:16.819Z,99331.94
2023-02-26T05:32:47.997Z,99337.06
2023-02-26T05:35:18.612Z,99335.56
2023-02-26T05:37:47.076Z,99347.72
2023-02-26T05:40:16.286Z,99355.59
2023-02-26T05:42:45.581Z,99360.88
2023-02-26T05:45:14.717Z,99369.16
2023-02-26T05:47:43.829Z,99368.41
2023-02-26T05:50:13.897Z,99379.78
2023-02-26T05:52:44.218Z,99391.66
2023-02-26T05:55:13.337Z,99387.81
2023-02-26T05:57:43.216Z,99401.50
2023-02-26T06:00:13.885Z,99399.94
2023-02-26T06:02:43.530Z,99410.34
2023-02-26T06:05:12.735Z,99418.19
2023-02-26T06:07:41.655Z,99424.31
2023-02-26T06:10:14.334Z,99427.63
2023-02-26T06:12:43.591Z,99435.69
2023-02-26T06:15:13.209Z,99436.06
2023-02-26T06:17:42.719Z,99442.19
2023-02-26T06:20:13.867Z,99451.03
2023-02-26T06:22:42.633Z,99452.44
2023-02-26T06:25:13.500Z,99461.75
2023-02-26T06:27:42.992Z,99462.66
2023-02-26T06:30:13.569Z,99476.28
2023-02-26T06:32:42.389Z,99475.97
2023-02-26T06:35:11.860Z,99485.38
2023-02-26T06:37:40.648Z,99477.69
2023-02-26T06:40:13.279Z,99493.84
2023-02-26T06:42:43.574Z,99491.28
2023-02-26T06:45:14.384Z,99487.41
2023-02-26T06:47:43.524Z,99494.25
2023-02-26T06:50:13.901Z,99503.16
2023-02-26T06:52:43.571Z,99508.47
2023-02-26T06:55:14.485Z,99508.97
2023-02-26T06:57:43.630Z,99509.97
2023-02-26T07:00:14.373Z,99523.47
2023-02-26T07:02:44.444Z,99521.38
2023-02-26T07:05:13.619Z,99533.22
2023-02-26T07:07:42.624Z,99537.06
2023-02-26T07:10:14.700Z,99551.78
2023-02-26T07:12:44.204Z,99560.66
2023-02-26T07:15:15.631Z,99556.38
2023-02-26T07:17:44.812Z,99563.31
2023-02-26T07:20:14.683Z,99566.31
2023-02-26T07:22:43.614Z,99562.25
2023-02-26T07:25:15.065Z,99575.75
2023-02-26T07:27:44.253Z,99571.59
2023-02-26T07:30:15.468Z,99573.78
2023-02-26T07:32:44.916Z,99582.72
2023-02-26T07:35:14.076Z,99589.38
2023-02-26T07:37:44.865Z,99594.44
2023-02-26T07:40:15.943Z,99591.72
2023-02-26T07:42:45.151Z,99598.31
2023-02-26T07:45:14.308Z,99612.94
2023-02-26T07:47:43.501Z,99607.41
2023-02-26T07:50:13.670Z,99619.19
2023-02-26T07:52:42.596Z,99627.34
2023-02-26T07:55:12.359Z,99625.69
2023-02-26T07:57:45.196Z,99626.94
2023-02-26T08:00:15.827Z,99632.16
2023-02-26T08:02:45.018Z,99635.34
2023-02-26T08:05:14.969Z,99637.41
2023-02-26T08:07:43.869Z,99638.94
2023-02-26T08:10:13.577Z,99648.78
2023-02-26T08:12:44.163Z,99646.88
2023-02-26T08:15:14.541Z,99655.00
2023-02-26T08:17:43.736Z,99663.28
2023-02-26T08:20:15.384Z,99666.63
2023-02-26T08:22:44.119Z,99672.97
2023-02-26T08:25:13.976Z,99675.75
2023-02-26T08:27:44.625Z,99675.66
2023-02-26T08:30:14.751Z,99678.03
2023-02-26T08:32:43.996Z,99689.09
2023-02-26T08:35:13.799Z,99683.53
2023-02-26T08:37:42.964Z,99690.56
2023-02-26T08:40:15.165Z,99693.75
2023-02-26T08:42:46.041Z,99701.09
2023-02-26T08:45:15.800Z,99707.84
2023-02-26T08:47:56.384Z,99704.56
2023-02-26T08:50:26.499Z,99711.44
2023-02-26T08:52:55.504Z,99721.56
2023-02-26T08:55:25.090Z,99723.66
2023-02-26T08:57:55.746Z,99731.00
2023-02-26T09:00:25.227Z,99742.16
2023-02-26T09:02:54.469Z,99740.69
2023-02-26T09:05:23.821Z,99756.97
2023-02-26T09:07:52.714Z,99762.22
2023-02-26T09:10:22.218Z,99769.72
2023-02-26T09:12:51.422Z,99772.50
2023-02-26T09:15:22.202Z,99773.06
2023-02-26T09:17:52.012Z,99778.31
2023-02-26T09:20:21.541Z,99793.22
2023-02-26T09:22:50.321Z,99787.16
2023-02-26T09:25:19.712Z,99786.31
2023-02-26T09:27:48.847Z,99782.31
2023-02-26T09:30:18.527Z,99781.72
2023-02-26T09:32:49.145Z,99795.88
2023-02-26T09:35:18.810Z,99794.59
2023-02-26T09:37:47.591Z,99805.69
2023-02-26T09:40:25.827Z,99816.16
2023-02-26T09:43:05.177Z,99806.69
2023-02-26T09:45:38.176Z,99816.31
2023-02-26T09:48:10.448Z,99827.00
2023-02-26T09:50:43.893Z,99827.34
2023-02-26T09:53:18.172Z,99831.81
2023-02-26T09:55:48.059Z,99834.50
2023-02-26T09:58:21.082Z,99838.66
2023-02-26T10:00:55.876Z,99836.22
2023-02-26T10:03:30.062Z,99841.69
2023-02-26T10:06:23.932Z,99849.75
2023-02-26T10:09:11.998Z,99853.16
2023-02-26T10:11:54.897Z,99861.97
2023-02-26T10:14:27.821Z,99862.00
2023-02-26T10:17:00.958Z,99853.94
2023-02-26T10:19:34.651Z,99864.13
2023-02-26T10:22:07.659Z,99863.72
2023-02-26T10:24:42.293Z,99868.31
2023-02-26T10:27:16.296Z,99872.56
2023-02-26T10:29:50.051Z,99870.13
2023-02-26T10:32:26.905Z,99878.22
2023-02-26T10:35:01.737Z,99876.06
2023-02-26T10:37:40.636Z,99878.13
2023-02-26T10:40:15.351Z,99886.78
2023-02-26T10:42:47.691Z,99897.69
2023-02-26T10:45:30.501Z,99900.84
2023-02-26T10:48:10.348Z,99899.44
2023-02-26T10:50:44.747Z,99904.00
2023-02-26T10:53:14.214Z,99917.34
2023-02-26T10:55:46.059Z,99920.34
2023-02-26T10:58:16.775Z,99915.94
2023-02-26T11:00:47.845Z,99926.88
2023-02-26T11:03:19.922Z,99922.63
2023-02-26T11:05:50.456Z,99923.63
2023-02-26T11:08:22.727Z,99921.72
2023-02-26T11:10:54.163Z,99923.19
2023-02-26T11:13:24.208Z,99921.41
2023-02-26T11:15:55.586Z,99937.00
2023-02-26T11:18:27.850Z,99940.16
2023-02-26T11:21:00.482Z,99937.94
2023-02-26T11:23:34.105Z,99949.38
2023-02-26T11:26:07.470Z,99949.13
2023-02-26T11:28:38.182Z,99951.06
2023-02-26T11:31:08.206Z,99948.56
2023-02-26T11:33:39.240Z,99954.22
2023-02-26T11:36:13.234Z,99952.25
2023-02-26T11:38:42.957Z,99955.34
2023-02-26T11:41:12.838Z,99965.34
2023-02-26T11:43:45.028Z,99969.25
2023-02-26T11:46:14.984Z,99973.75
2023-02-26T11:48:47.881Z,99976.84
2023-02-26T11:51:28.003Z,99975.50
2023-02-26T11:54:01.421Z,99979.66
2023-02-26T11:56:34.313Z,99990.31
2023-02-26T11:59:08.782Z,99985.31
2023-02-26T12:01:38.262Z,99998.41
2023-02-26T12:04:07.576Z,99998.25
2023-02-26T12:06:38.127Z,100011.38
2023-02-26T12:09:12.890Z,100014.19
2023-02-26T12:12:00.502Z,100014.78
2023-02-26T12:15:02.226Z,100019.63
2023-02-26T12:17:43.628Z,100030.16
2023-02-26T12:20:20.113Z,100029.00
2023-02-26T12:23:08.208Z,100024.25
2023-02-26T12:25:56.378Z,100028.50
2023-02-26T12:28:52.390Z,100034.50
2023-02-26T12:31:47.320Z,100037.53
2023-02-26T12:34:27.691Z,100042.81
2023-02-26T12:37:04.816Z,100039.66
2023-02-26T12:39:48.412Z,100035.69
2023-02-26T12:42:27.197Z,100042.03
2023-02-26T12:45:14.736Z,100047.81
2023-02-26T12:47:57.422Z,100043.75
2023-02-26T12:50:33.198Z,100047.31
2023-02-26T12:53:28.078Z,100049.56
2023-02-26T12:56:17.708Z,100043.09
2023-02-26T12:58:58.913Z,100056.97
2023-02-26T13:01:37.523Z,100064.66
2023-02-26T13:04:23.593Z,100055.41
2023-02-26T13:07:19.979Z,100056.91
2023-02-26T13:09:57.740Z,100055.31
2023-02-26T13:12:40.755Z,100053.00
2023-02-26T13:15:26.858Z,100061.25
2023-02-26T13:18:01.318Z,100064.16
2023-02-26T13:20:30.887Z,100063.78
2023-02-26T13:23:02.383Z,100061.97
2023-02-26T13:25:37.011Z,100075.09
2023-02-26T13:28:13.276Z,100076.75
2023-02-26T13:30:46.643Z,100079.00
2023-02-26T13:33:19.860Z,100080.41
2023-02-26T13:35:50.262Z,100085.63
2023-02-26T13:38:35.051Z,100092.16
2023-02-26T13:41:11.667Z,100092.03
2023-02-26T13:43:53.259Z,100095.66
2023-02-26T13:46:41.246Z,100095.22
2023-02-26T13:49:15.646Z,100086.06
2023-02-26T13:51:46.585Z,100097.56
2023-02-26T13:54:35.362Z,100096.34
2023-02-26T13:57:10.514Z,100109.72
2023-02-26T13:59:55.755Z,100100.47
2023-02-26T14:02:46.144Z,100110.91
2023-02-26T14:05:52.852Z,100107.81
2023-02-26T14:08:40.941Z,100112.03
2023-02-26T14:11:39.756Z,100111.63
2023-02-26T14:14:18.048Z,100113.22
2023-02-26T14:16:51.958Z,100113.38
2023-02-26T14:19:28.560Z,100116.41
2023-02-26T14:22:00.972Z,100121.91
2023-02-26T14:24:37.683Z,100127.16
2023-02-26T14:27:34.621Z,100124.97
2023-02-26T14:30:18.866Z,100127.06
2023-02-26T14:32:51.016Z,100134.13
2023-02-26T14:35:23.031Z,100132.75
2023-02-26T14:37:59.724Z,100138.31
2023-02-26T14:40:31.547Z,100146.94
2023-02-26T14:43:02.514Z,100147.16
2023-02-26T14:45:35.138Z,100155.06
2023-02-26T14:48:07.704Z,100148.25
2023-02-26T14:50:44.993Z,100159.22
2023-02-26T14:53:48.969Z,100160.84
2023-02-26T14:56:22.503Z,100160.25
2023-02-26T14:59:04.806Z,100161.34
2023-02-26T15:01:56.458Z,100153.22
2023-02-26T15:04:54.125Z,100164.91
2023-02-26T15:07:35.991Z,100171.56
2023-02-26T15:10:16.141Z,100177.31
2023-02-26T15:12:56.722Z,100176.84
2023-02-26T15:15:38.494Z,100179.13
2023-02-26T15:18:18.792Z,100182.28
2023-02-26T15:20:51.544Z,100187.03
2023-02-26T15:23:30.571Z,100191.44
2023-02-26T15:25:59.404Z,100187.94
2023-02-26T15:28:29.935Z,100192.53
2023-02-26T15:31:00.447Z,100201.56
2023-02-26T15:33:31.249Z,100201.13
2023-02-26T15:36:02.909Z,100205.66
2023-02-26T15:38:42.184Z,100212.34
2023-02-26T15:41:12.014Z,100213.66
2023-02-26T15:43:44.319Z,100213.91
2023-02-26T15:46:13.411Z,100215.66
2023-02-26T15:48:43.167Z,100222.25
2023-02-26T15:51:15.758Z,100228.38
2023-02-26T15:53:47.155Z,100227.72
2023-02-26T15:56:19.989Z,100235.81
2023-02-26T15:58:52.984Z,100245.31
2023-02-26T16:01:24.644Z,100250.66
2023-02-26T16:03:57.919Z,100252.03
2023-02-26T16:06:30.610Z,100254.66
2023-02-26T16:09:04.319Z,100262.38
2023-02-26T16:11:35.889Z,100264.41
2023-02-26T16:14:06.411Z,100258.41
2023-02-26T16:16:41.383Z,100262.84
2023-02-26T16:19:12.175Z,100262.50
2023-02-26T16:21:43.520Z,100271.72
2023-02-26T16:24:17.479Z,100272.19
2023-02-26T16:26:49.229Z,100280.06
2023-02-26T16:29:20.124Z,100283.78
2023-02-26T16:31:53.273Z,100289.66
2023-02-26T16:34:31.589Z,100290.13
2023-02-26T16:37:12.743Z,100291.53
2023-02-26T16:39:46.495Z,100295.16
2023-02-26T16:42:21.136Z,100295.03
2023-02-26T16:44:53.547Z,100306.38
2023-02-26T16:47:23.740Z,100307.09
2023-02-26T16:49:53.576Z,100311.38
2023-02-26T16:52:26.319Z,100312.34
2023-02-26T16:54:59.237Z,100314.16
2023-02-26T16:57:35.980Z,100317.13
2023-02-26T17:00:10.296Z,100321.19
2023-02-26T17:02:40.756Z,100325.81
2023-02-26T17:05:18.915Z,100330.50
2023-02-26T17:07:58.325Z,100339.50
2023-02-26T17:10:31.261Z,100334.34
2023-02-26T17:13:06.289Z,100340.31
2023-02-26T17:15:39.059Z,100344.75
2023-02-26T17:18:08.632Z,100346.97
2023-02-26T17:20:38.590Z,100357.41
2023-02-26T17:23:10.355Z,100352.47
2023-02-26T17:25:41.400Z,100360.13
2023-02-26T17:28:13.228Z,100362.44
2023-02-26T17:30:42.308Z,100379.34
2023-02-26T17:33:14.466Z,100369.97
2023-02-26T17:35:44.379Z,100373.53
2023-02-26T17:38:16.104Z,100381.88
2023-02-26T17:40:47.749Z,100384.78
2023-02-26T17:43:16.963Z,100389.41
2023-02-26T17:45:46.198Z,100392.66
2023-02-26T17:48:16.504Z,100397.34
2023-02-26T17:50:47.138Z,100401.34
2023-02-26T17:53:19.031Z,100400.28
2023-02-26T17:55:48.613Z,100401.19
2023-02-26T17:58:18.604Z,100403.59
2023-02-26T18:00:49.989Z,100415.56
2023-02-26T18:03:20.088Z,100421.84
2023-02-26T18:05:49.957Z,100423.53
2023-02-26T18:08:24.146Z,100416.81
2023-02-26T18:10:53.552Z,100423.84
2023-02-26T18:13:22.640Z,100426.63
2023-02-26T18:15:53.098Z,100424.69
2023-02-26T18:18:23.462Z,100429.72
2023-02-26T18:20:52.915Z,100433.41
2023-02-26T18:23:23.850Z,100434.88
2023-02-26T18:25:53.815Z,100439.19
2023-02-26T18:28:24.318Z,100434.09
2023-02-26T18:30:53.776Z,100447.09
2023-02-26T18:33:22.991Z,100438.06
2023-02-26T18:35:56.020Z,100445.78
2023-02-26T18:38:27.826Z,100444.69
2023-02-26T18:40:56.834Z,100453.25
2023-02-26T18:43:26.310Z,100459.56
2023-02-26T18:45:56.804Z,100458.16
2023-02-26T18:48:25.907Z,100467.53
2023-02-26T18:50:56.117Z,100464.84
2023-02-26T18:53:27.690Z,100469.00
2023-02-26T18:55:58.233Z,100474.19
2023-02-26T18:58:27.464Z,100473.13
2023-02-26T19:00:59.325Z,100479.06
2023-02-26T19:03:28.483Z,100477.03
2023-02-26T19:05:58.899Z,100482.03
2023-02-26T19:08:30.364Z,100490.47
2023-02-26T19:10:59.328Z,100490.50
2023-02-26T19:13:30.176Z,100492.81
2023-02-26T19:15:59.353Z,100503.09
2023-02-26T19:18:28.528Z,100503.81
2023-02-26T19:20:57.631Z,100502.88
2023-02-26T19:23:26.668Z,100507.56
2023-02-26T19:25:56.822Z,100502.50
2023-02-26T19:28:26.082Z,100504.16
2023-02-26T19:30:55.916Z,100511.75
2023-02-26T19:33:25.133Z,100511.97
2023-02-26T19:35:54.348Z,100514.63
2023-02-26T19:38:23.644Z,100516.75
2023-02-26T19:40:53.045Z,100515.50
2023-02-26T19:43:23.991Z,100516.34
2023-02-26T19:45:53.869Z,100515.97
2023-02-26T19:48:23.937Z,100518.94
2023-02-26T19:50:53.036Z,100538.03
2023-02-26T19:53:22.154Z,100542.03
2023-02-26T19:55:51.174Z,100541.56
2023-02-26T19:58:21.150Z,100537.25
2023-02-26T20:00:51.663Z,100535.38
2023-02-26T20:03:20.805Z,100540.19
2023-02-26T20:05:49.887Z,100542.25
2023-02-26T20:08:18.982Z,100540.34
2023-02-26T20:10:48.503Z,100556.56
2023-02-26T20:13:18.520Z,100556.03
2023-02-26T20:15:50.924Z,100569.13
2023-02-26T20:18:23.050Z,100560.53
2023-02-26T20:20:53.339Z,100563.00
2023-02-26T20:23:22.163Z,100571.88
2023-02-26T20:25:51.209Z,100565.41
2023-02-26T20:28:20.338Z,100568.44
2023-02-26T20:30:49.460Z,100580.00
2023-02-26T20:33:18.782Z,100575.25
2023-02-26T20:35:49.850Z,100579.56
2023-02-26T20:38:20.307Z,100583.94
2023-02-26T20:40:49.864Z,100589.81
2023-02-26T20:43:18.948Z,100588.47
2023-02-26T20:45:48.124Z,100591.03
2023-02-26T20:48:17.259Z,100592.91
2023-02-26T20:50:46.398Z,100596.22
2023-02-26T20:53:17.140Z,100594.19
2023-02-26T20:55:46.023Z,100591.63
2023-02-26T20:58:15.078Z,100594.56
2023-02-26T21:00:44.441Z,100598.56
2023-02-26T21:03:13.563Z,100597.78
2023-02-26T21:05:43.174Z,100600.69
2023-02-26T21:08:13.555Z,100605.06
2023-02-26T21:10:43.924Z,100605.53
2023-02-26T21:13:13.074Z,100613.53
2023-02-26T21:15:42.248Z,100611.22
2023-02-26T21:18:12.964Z,100618.38
2023-02-26T21:20:42.144Z,100626.47
2023-02-26T21:23:11.419Z,100622.97
2023-02-26T21:25:40.341Z,100625.41
2023-02-26T21:28:11.000Z,100629.41
2023-02-26T21:30:40.231Z,100625.09
2023-02-26T21:33:09.465Z,100635.53
2023-02-26T21:35:38.709Z,100632.22
2023-02-26T21:38:08.714Z,100626.59
2023-02-26T21:40:37.679Z,100635.69
2023-02-26T21:43:06.883Z,100639.75
2023-02-26T21:45:37.455Z,100636.91
2023-02-26T21:48:07.215Z,100640.47
2023-02-26T21:50:36.522Z,100647.44
2023-02-26T21:53:05.607Z,100638.50
2023-02-26T21:55:34.232Z,100643.50
2023-02-26T21:58:03.606Z,100651.47
2023-02-26T22:00:32.809Z,100656.47
2023-02-26T22:03:03.462Z,100652.75
2023-02-26T22:05:32.517Z,100662.66
2023-02-26T22:08:01.894Z,100664.94
2023-02-26T22:10:30.588Z,100657.91
2023-02-26T22:12:59.674Z,100660.72
2023-02-26T22:15:29.773Z,100669.78
2023-02-26T22:17:58.802Z,100669.16
2023-02-26T22:20:30.378Z,100674.19
2023-02-26T22:22:59.861Z,100669.91
2023-02-26T22:25:28.914Z,100677.13
2023-02-26T22:27:58.002Z,100683.88
2023-02-26T22:30:27.056Z,100676.06
2023-02-26T22:32:56.113Z,100686.41
2023-02-26T22:35:25.160Z,100686.19
2023-02-26T22:37:55.419Z,100691.97
2023-02-26T22:40:25.008Z,100693.13
2023-02-26T22:43:34.309Z,100687.97
2023-02-26T22:46:43.923Z,100695.13
2023-02-26T22:49:53.243Z,100698.47
2023-02-26T22:53:04.442Z,100701.63
2023-02-26T22:56:13.735Z,100689.44
2023-02-26T22:59:23.116Z,100689.44
2023-02-26T23:02:32.505Z,100695.75
2023-02-26T23:05:41.839Z,100706.34
2023-02-26T23:08:52.933Z,100705.03
2023-02-26T23:12:02.273Z,100703.16
2023-02-26T23:15:12.638Z,100704.00
2023-02-26T23:18:22.125Z,100700.25
2023-02-26T23:21:32.083Z,100706.44
2023-02-26T23:24:43.007Z,100719.16
2023-02-26T23:27:52.275Z,100732.44
2023-02-26T23:31:01.586Z,100733.78
2023-02-26T23:34:11.315Z,100740.84
2023-02-26T23:37:20.710Z,100746.13
2023-02-26T23:40:31.815Z,100749.75
2023-02-26T23:43:41.132Z,100741.91
2023-02-26T23:46:50.846Z,100741.91
2023-02-26T23:50:00.331Z,100740.63
2023-02-26T23:53:09.989Z,100745.47
2023-02-26T23:56:20.750Z,100744.53
2023-02-26T23:59:30.034Z,100742.59
